createdAt,value
2022-09-16T00:00:16.046Z,11.77
2022-09-16T00:03:03.803Z,11.76
2022-09-16T00:05:53.018Z,11.74
2022-09-16T00:08:40.455Z,11.68
2022-09-16T00:11:28.613Z,11.67
2022-09-16T00:14:15.901Z,11.68
2022-09-16T00:17:03.474Z,11.66
2022-09-16T00:19:50.965Z,11.55
2022-09-16T00:22:38.238Z,11.62
2022-09-16T00:25:25.486Z,11.63
2022-09-16T00:28:12.814Z,11.62
2022-09-16T00:31:01.445Z,11.61
2022-09-16T00:33:48.784Z,11.62
2022-09-16T00:36:36.067Z,11.62
2022-09-16T00:39:23.675Z,11.63
2022-09-16T00:42:12.090Z,11.55
2022-09-16T00:44:59.440Z,11.65
2022-09-16T00:47:57.806Z,11.64
2022-09-16T00:50:49.385Z,11.62
2022-09-16T00:53:43.247Z,11.58
2022-09-16T00:56:35.953Z,11.56
2022-09-16T00:59:31.700Z,11.55
2022-09-16T01:02:21.541Z,11.51
2022-09-16T01:05:16.568Z,11.47
2022-09-16T01:08:04.938Z,11.49
2022-09-16T01:10:52.697Z,11.49
2022-09-16T01:13:40.604Z,11.46
2022-09-16T01:16:28.029Z,11.47
2022-09-16T01:19:37.149Z,11.46
2022-09-16T01:22:39.725Z,11.46
2022-09-16T01:25:58.858Z,11.51
2022-09-16T01:29:04.380Z,11.52
2022-09-16T01:32:00.418Z,11.53
2022-09-16T01:34:57.416Z,11.60
2022-09-16T01:38:06.506Z,11.63
2022-09-16T01:41:12.195Z,11.69
2022-09-16T01:44:21.229Z,11.70
2022-09-16T01:47:20.419Z,11.69
2022-09-16T01:50:33.343Z,11.67
2022-09-16T01:53:32.681Z,11.64
2022-09-16T01:56:26.194Z,11.61
2022-09-16T01:59:23.557Z,11.58
2022-09-16T02:02:21.906Z,11.58
2022-09-16T02:05:15.634Z,11.58
2022-09-16T02:08:08.432Z,11.66
2022-09-16T02:11:01.815Z,11.66
2022-09-16T02:13:59.736Z,11.64
2022-09-16T02:16:49.942Z,11.62
2022-09-16T02:19:42.090Z,11.57
2022-09-16T02:22:35.104Z,11.51
2022-09-16T02:25:23.774Z,11.42
2022-09-16T02:28:16.909Z,11.32
2022-09-16T02:31:07.496Z,11.29
2022-09-16T02:34:00.370Z,11.22
2022-09-16T02:36:52.863Z,11.19
2022-09-16T02:39:44.645Z,11.16
2022-09-16T02:42:33.199Z,11.17
2022-09-16T02:45:26.335Z,11.11
2022-09-16T02:48:20.213Z,11.11
2022-09-16T02:51:31.953Z,11.07
2022-09-16T02:54:32.264Z,10.99
2022-09-16T02:57:20.204Z,10.98
2022-09-16T03:00:08.487Z,10.96
2022-09-16T03:02:55.867Z,10.94
2022-09-16T03:06:11.233Z,10.90
2022-09-16T03:09:00.835Z,10.91
2022-09-16T03:12:06.545Z,10.93
2022-09-16T03:15:03.062Z,10.91
2022-09-16T03:18:21.352Z,10.94
2022-09-16T03:21:32.151Z,10.98
2022-09-16T03:24:42.998Z,10.98
2022-09-16T03:27:37.644Z,11.02
2022-09-16T03:30:25.255Z,11.03
2022-09-16T03:33:24.219Z,11.03
2022-09-16T03:36:16.329Z,11.04
2022-09-16T03:39:05.500Z,11.09
2022-09-16T03:41:53.415Z,11.11
2022-09-16T03:44:41.376Z,11.14
2022-09-16T03:47:28.966Z,11.09
2022-09-16T03:50:17.779Z,11.03
2022-09-16T03:53:05.444Z,10.99
2022-09-16T03:55:52.784Z,10.97
2022-09-16T03:58:40.098Z,10.94
2022-09-16T04:01:27.396Z,10.96
2022-09-16T04:04:15.153Z,10.96
2022-09-16T04:07:02.764Z,11.01
2022-09-16T04:09:50.341Z,11.00
2022-09-16T04:12:38.003Z,10.98
2022-09-16T04:15:25.311Z,10.94
2022-09-16T04:18:16.067Z,10.98
2022-09-16T04:21:04.799Z,10.93
2022-09-16T04:23:52.522Z,10.84
2022-09-16T04:26:39.959Z,10.86
2022-09-16T04:29:27.856Z,10.81
2022-09-16T04:32:15.214Z,10.77
2022-09-16T04:35:02.477Z,10.79
2022-09-16T04:37:49.898Z,10.75
2022-09-16T04:40:39.710Z,10.76
2022-09-16T04:43:26.978Z,10.72
2022-09-16T04:46:15.110Z,10.71
2022-09-16T04:49:03.031Z,10.74
2022-09-16T04:51:52.136Z,10.72
2022-09-16T04:54:39.509Z,10.76
2022-09-16T04:57:31.293Z,10.78
2022-09-16T05:00:18.706Z,10.78
2022-09-16T05:03:06.772Z,10.87
2022-09-16T05:05:54.062Z,10.93
2022-09-16T05:08:43.164Z,10.95
2022-09-16T05:11:33.869Z,10.87
2022-09-16T05:14:21.553Z,10.88
2022-09-16T05:17:08.797Z,10.92
2022-09-16T05:19:56.450Z,10.89
2022-09-16T05:22:44.033Z,10.89
2022-09-16T05:25:31.362Z,10.86
2022-09-16T05:28:18.671Z,10.89
2022-09-16T05:31:13.442Z,10.89
2022-09-16T05:34:06.319Z,10.88
2022-09-16T05:36:54.518Z,10.93
2022-09-16T05:39:42.095Z,10.99
2022-09-16T05:42:29.323Z,11.06
2022-09-16T05:45:20.100Z,11.16
2022-09-16T05:48:10.534Z,11.21
2022-09-16T05:51:00.638Z,11.27
2022-09-16T05:53:49.292Z,11.25
2022-09-16T05:56:36.583Z,11.26
2022-09-16T05:59:24.125Z,11.29
2022-09-16T06:02:12.860Z,11.22
2022-09-16T06:05:00.160Z,11.26
2022-09-16T06:07:47.457Z,11.28
2022-09-16T06:10:39.541Z,11.33
2022-09-16T06:13:26.737Z,11.40
2022-09-16T06:16:16.963Z,11.48
2022-09-16T06:19:10.389Z,11.61
2022-09-16T06:21:57.725Z,11.59
2022-09-16T06:24:45.272Z,11.61
2022-09-16T06:27:33.011Z,11.71
2022-09-16T06:30:20.295Z,11.71
2022-09-16T06:33:09.144Z,11.86
2022-09-16T06:35:57.811Z,11.86
2022-09-16T06:38:46.328Z,11.91
2022-09-16T06:41:34.333Z,11.92
2022-09-16T06:44:21.882Z,12.01
2022-09-16T06:47:09.571Z,12.05
2022-09-16T06:49:56.919Z,12.12
2022-09-16T06:52:44.693Z,12.16
2022-09-16T06:55:31.958Z,12.21
2022-09-16T06:58:19.485Z,12.25
2022-09-16T07:01:15.167Z,12.34
2022-09-16T07:04:05.451Z,12.39
2022-09-16T07:07:10.130Z,12.35
2022-09-16T07:09:58.604Z,12.50
2022-09-16T07:12:45.939Z,12.52
2022-09-16T07:15:33.180Z,12.60
2022-09-16T07:18:20.711Z,12.66
2022-09-16T07:21:16.606Z,12.75
2022-09-16T07:24:04.702Z,12.87
2022-09-16T07:26:52.102Z,12.94
2022-09-16T07:29:39.446Z,12.95
2022-09-16T07:32:26.707Z,12.95
2022-09-16T07:35:14.034Z,13.00
2022-09-16T07:38:02.095Z,13.07
2022-09-16T07:40:49.682Z,13.05
2022-09-16T07:43:38.169Z,13.09
2022-09-16T07:46:27.781Z,13.08
2022-09-16T07:49:15.229Z,13.23
2022-09-16T07:52:02.485Z,13.34
2022-09-16T07:54:50.526Z,13.44
2022-09-16T07:57:37.835Z,13.57
2022-09-16T08:00:26.863Z,13.57
2022-09-16T08:03:14.618Z,13.65
2022-09-16T08:06:04.327Z,13.70
2022-09-16T08:08:53.969Z,13.82
2022-09-16T08:11:41.423Z,14.00
2022-09-16T08:14:28.763Z,14.01
2022-09-16T08:17:16.578Z,13.99
2022-09-16T08:20:06.798Z,14.07
2022-09-16T08:22:57.962Z,14.24
2022-09-16T08:25:45.639Z,14.20
2022-09-16T08:28:45.026Z,14.37
2022-09-16T08:31:38.853Z,14.46
2022-09-16T08:34:26.753Z,14.48
2022-09-16T08:37:14.169Z,14.54
2022-09-16T08:40:02.531Z,14.67
2022-09-16T08:43:12.090Z,14.67
2022-09-16T08:46:18.263Z,14.83
2022-09-16T08:49:29.837Z,14.80
2022-09-16T08:52:32.913Z,14.91
2022-09-16T08:55:54.988Z,14.85
2022-09-16T08:58:50.781Z,14.95
2022-09-16T09:01:53.484Z,15.12
2022-09-16T09:04:41.082Z,15.24
2022-09-16T09:08:00.683Z,15.36
2022-09-16T09:10:57.459Z,15.54
2022-09-16T09:14:10.592Z,15.69
2022-09-16T09:17:11.176Z,15.55
2022-09-16T09:20:07.579Z,15.44
2022-09-16T09:23:24.290Z,15.26
2022-09-16T09:26:22.598Z,15.43
2022-09-16T09:29:28.999Z,15.60
2022-09-16T09:32:48.619Z,15.61
2022-09-16T09:36:03.148Z,15.73
2022-09-16T09:39:12.297Z,15.72
2022-09-16T09:42:22.664Z,16.05
2022-09-16T09:45:22.890Z,15.99
2022-09-16T09:48:23.765Z,16.11
2022-09-16T09:51:22.857Z,16.30
2022-09-16T09:54:25.757Z,16.50
2022-09-16T09:57:30.288Z,16.51
2022-09-16T10:00:19.225Z,16.60
2022-09-16T10:03:17.259Z,16.68
2022-09-16T10:06:05.346Z,16.45
2022-09-16T10:08:55.516Z,16.27
2022-09-16T10:11:56.969Z,16.27
2022-09-16T10:14:46.441Z,16.29
2022-09-16T10:17:33.905Z,16.47
2022-09-16T10:20:27.735Z,16.76
2022-09-16T10:23:21.120Z,16.48
2022-09-16T10:26:20.284Z,15.19
2022-09-16T10:29:19.607Z,13.97
2022-09-16T10:32:12.496Z,13.43
2022-09-16T10:35:00.341Z,13.23
2022-09-16T10:38:21.441Z,13.47
2022-09-16T10:41:27.960Z,13.96
2022-09-16T10:44:26.186Z,14.39
2022-09-16T10:47:21.563Z,14.60
2022-09-16T10:50:18.151Z,14.89
2022-09-16T10:53:22.142Z,15.27
2022-09-16T10:56:18.664Z,15.60
2022-09-16T10:59:10.129Z,15.77
2022-09-16T11:02:04.037Z,16.10
2022-09-16T11:05:13.049Z,16.43
2022-09-16T11:08:22.160Z,16.76
2022-09-16T11:11:40.940Z,16.84
2022-09-16T11:15:08.288Z,17.28
2022-09-16T11:18:25.498Z,17.30
2022-09-16T11:21:34.321Z,17.41
2022-09-16T11:24:43.534Z,17.58
2022-09-16T11:27:44.997Z,17.81
2022-09-16T11:30:40.509Z,18.03
2022-09-16T11:33:34.138Z,17.82
2022-09-16T11:36:41.287Z,17.95
2022-09-16T11:39:56.242Z,18.71
2022-09-16T11:43:02.512Z,18.20
2022-09-16T11:46:11.382Z,18.12
2022-09-16T11:49:45.347Z,18.13
2022-09-16T11:53:07.220Z,18.44
2022-09-16T11:56:03.743Z,18.57
2022-09-16T11:58:56.508Z,18.81
2022-09-16T12:01:52.799Z,18.94
2022-09-16T12:04:53.505Z,19.22
2022-09-16T12:08:23.286Z,19.51
2022-09-16T12:11:13.801Z,19.77
2022-09-16T12:14:13.320Z,20.13
2022-09-16T12:17:12.725Z,20.14
2022-09-16T12:20:21.320Z,19.90
2022-09-16T12:23:20.153Z,19.80
2022-09-16T12:26:13.035Z,19.00
2022-09-16T12:29:22.722Z,18.98
2022-09-16T12:32:15.753Z,19.21
2022-09-16T12:35:11.037Z,18.22
2022-09-16T12:37:59.177Z,16.55
2022-09-16T12:41:10.895Z,15.64
2022-09-16T12:44:34.741Z,15.07
2022-09-16T12:47:35.286Z,15.35
2022-09-16T12:50:47.594Z,16.68
2022-09-16T12:53:46.898Z,17.72
2022-09-16T12:56:46.688Z,18.34
2022-09-16T13:00:04.722Z,18.45
2022-09-16T13:02:59.502Z,18.20
2022-09-16T13:05:50.847Z,18.29
2022-09-16T13:08:38.530Z,18.51
2022-09-16T13:14:49.261Z,19.02
2022-09-16T13:17:40.664Z,19.17
2022-09-16T13:20:40.357Z,19.34
2022-09-16T13:23:34.874Z,19.32
2022-09-16T13:26:22.210Z,18.97
2022-09-16T13:29:34.922Z,19.13
2022-09-16T13:32:27.684Z,19.58
2022-09-16T13:35:18.174Z,19.53
2022-09-16T13:38:22.631Z,19.36
2022-09-16T13:41:47.050Z,19.92
2022-09-16T13:44:37.272Z,19.11
2022-09-16T13:47:34.360Z,19.35
2022-09-16T13:50:25.319Z,19.53
2022-09-16T13:53:24.242Z,18.99
2022-09-16T13:56:35.525Z,18.33
2022-09-16T14:03:07.424Z,17.25
2022-09-16T14:06:03.873Z,16.82
2022-09-16T14:09:14.083Z,16.67
2022-09-16T14:12:21.681Z,17.70
2022-09-16T14:15:10.682Z,18.18
2022-09-16T14:18:02.154Z,18.71
2022-09-16T14:20:55.363Z,19.77
2022-09-16T14:23:42.671Z,19.15
2022-09-16T14:26:30.248Z,18.92
2022-09-16T14:29:17.595Z,17.90
2022-09-16T14:32:05.779Z,17.71
2022-09-16T14:34:56.756Z,17.00
2022-09-16T14:37:46.806Z,16.50
2022-09-16T14:40:38.716Z,16.25
2022-09-16T14:43:26.271Z,15.62
2022-09-16T14:46:13.884Z,14.95
2022-09-16T14:49:02.331Z,14.65
2022-09-16T14:52:00.704Z,14.11
2022-09-16T14:54:48.270Z,13.75
2022-09-16T14:57:35.598Z,13.46
2022-09-16T15:00:27.847Z,13.01
2022-09-16T15:03:42.855Z,12.83
2022-09-16T15:06:35.900Z,12.60
2022-09-16T15:09:33.279Z,12.34
2022-09-16T15:12:32.987Z,12.06
2022-09-16T15:15:22.655Z,11.85
2022-09-16T15:18:19.472Z,11.80
2022-09-16T15:21:28.350Z,11.71
2022-09-16T15:24:20.559Z,11.63
2022-09-16T15:27:08.530Z,11.47
2022-09-16T15:29:59.435Z,11.59
2022-09-16T15:32:47.058Z,11.59
2022-09-16T15:35:35.713Z,11.59
2022-09-16T15:38:23.442Z,11.56
2022-09-16T15:41:13.411Z,11.56
2022-09-16T15:44:02.159Z,11.52
2022-09-16T15:46:49.846Z,11.57
2022-09-16T15:49:39.900Z,11.55
2022-09-16T15:52:27.512Z,11.53
2022-09-16T15:55:28.837Z,11.48
2022-09-16T15:58:21.725Z,11.49
2022-09-16T16:01:27.687Z,11.50
2022-09-16T16:04:24.469Z,11.53
2022-09-16T16:07:12.026Z,11.52
2022-09-16T16:10:21.173Z,11.45
2022-09-16T16:13:08.763Z,11.40
2022-09-16T16:15:56.178Z,11.45
2022-09-16T16:18:45.126Z,11.44
2022-09-16T16:21:33.564Z,11.53
2022-09-16T16:24:20.948Z,-138.62
2022-09-16T16:27:09.516Z,-138.62
2022-09-16T16:29:56.862Z,-138.62
2022-09-16T16:32:44.769Z,-138.62
2022-09-16T16:35:32.050Z,-138.62
2022-09-16T16:38:19.633Z,-138.62
2022-09-16T16:41:08.496Z,-138.62
2022-09-16T16:43:56.164Z,-138.62
2022-09-16T16:46:43.632Z,-138.62
2022-09-16T16:49:31.138Z,-138.62
2022-09-16T16:52:18.828Z,-138.62
2022-09-16T16:55:06.853Z,11.81
2022-09-16T16:57:54.428Z,11.86
2022-09-16T17:00:41.912Z,11.87
2022-09-16T17:03:30.215Z,11.89
2022-09-16T17:06:18.358Z,11.97
2022-09-16T17:09:07.061Z,12.04
2022-09-16T17:12:00.198Z,11.99
2022-09-16T17:14:47.756Z,12.06
2022-09-16T17:17:35.393Z,12.00
2022-09-16T17:20:23.505Z,12.00
2022-09-16T17:23:10.939Z,12.09
2022-09-16T17:25:58.353Z,12.15
2022-09-16T17:28:48.606Z,12.13
2022-09-16T17:31:39.407Z,12.20
2022-09-16T17:34:26.739Z,12.21
2022-09-16T17:37:15.222Z,12.19
2022-09-16T17:40:04.552Z,12.22
2022-09-16T17:42:53.003Z,12.28
2022-09-16T17:45:40.697Z,12.31
2022-09-16T17:48:29.777Z,12.37
2022-09-16T17:51:17.789Z,12.33
2022-09-16T17:54:05.125Z,12.32
2022-09-16T17:56:52.428Z,12.38
2022-09-16T17:59:40.371Z,12.43
2022-09-16T18:02:27.780Z,12.42
2022-09-16T18:05:16.121Z,12.49
2022-09-16T18:08:04.601Z,12.53
2022-09-16T18:10:54.073Z,12.59
2022-09-16T18:13:42.661Z,12.62
2022-09-16T18:16:30.481Z,12.65
2022-09-16T18:19:18.041Z,12.63
2022-09-16T18:22:05.421Z,12.62
2022-09-16T18:24:53.439Z,12.64
2022-09-16T18:27:44.136Z,12.63
2022-09-16T18:30:31.749Z,12.71
2022-09-16T18:33:19.090Z,12.67
2022-09-16T18:36:09.277Z,12.71
2022-09-16T18:38:58.165Z,12.69
2022-09-16T18:41:46.441Z,12.71
2022-09-16T18:44:33.873Z,12.68
2022-09-16T18:47:21.250Z,12.70
2022-09-16T18:50:09.668Z,12.72
2022-09-16T18:52:58.041Z,12.76
2022-09-16T18:55:46.115Z,12.76
2022-09-16T18:58:35.864Z,12.81
2022-09-16T19:01:29.066Z,12.80
2022-09-16T19:04:22.525Z,12.80
2022-09-16T19:07:14.490Z,12.81
2022-09-16T19:10:01.823Z,12.84
2022-09-16T19:12:49.023Z,12.79
2022-09-16T19:15:37.134Z,12.80
2022-09-16T19:18:25.516Z,12.75
2022-09-16T19:21:16.421Z,12.77
2022-09-16T19:24:07.586Z,12.75
2022-09-16T19:26:56.079Z,12.83
2022-09-16T19:29:45.646Z,12.84
2022-09-16T19:32:33.283Z,12.78
2022-09-16T19:35:24.462Z,12.77
2022-09-16T19:38:15.368Z,12.76
2022-09-16T19:41:04.414Z,12.76
2022-09-16T19:43:57.955Z,12.67
2022-09-16T19:46:49.704Z,12.69
2022-09-16T19:49:37.357Z,12.66
2022-09-16T19:52:24.820Z,12.60
2022-09-16T19:55:12.581Z,12.56
2022-09-16T19:58:00.594Z,12.56
2022-09-16T20:00:56.289Z,12.53
2022-09-16T20:03:45.574Z,12.53
2022-09-16T20:06:37.678Z,12.51
2022-09-16T20:09:27.921Z,12.44
2022-09-16T20:12:15.825Z,12.52
2022-09-16T20:15:03.514Z,12.54
2022-09-16T20:17:51.529Z,12.53
2022-09-16T20:20:38.923Z,12.53
2022-09-16T20:23:26.497Z,12.52
2022-09-16T20:26:19.695Z,12.53
2022-09-16T20:29:07.375Z,12.55
2022-09-16T20:31:57.418Z,12.52
2022-09-16T20:34:59.132Z,12.55
2022-09-16T20:37:46.545Z,12.51
2022-09-16T20:40:35.408Z,12.53
2022-09-16T20:43:23.611Z,12.52
2022-09-16T20:46:14.117Z,12.51
2022-09-16T20:49:04.060Z,12.52
2022-09-16T20:51:52.370Z,12.48
2022-09-16T20:54:42.169Z,12.48
2022-09-16T20:57:29.617Z,12.46
2022-09-16T21:00:20.921Z,12.43
2022-09-16T21:03:11.885Z,12.43
2022-09-16T21:06:15.303Z,12.43
2022-09-16T21:09:05.819Z,12.47
2022-09-16T21:11:53.381Z,12.43
2022-09-16T21:14:40.900Z,12.41
2022-09-16T21:17:28.841Z,12.42
2022-09-16T21:20:16.550Z,12.38
2022-09-16T21:23:03.876Z,12.33
2022-09-16T21:25:51.290Z,12.30
2022-09-16T21:28:39.869Z,12.28
2022-09-16T21:31:29.367Z,12.25
2022-09-16T21:34:20.141Z,12.20
2022-09-16T21:37:07.594Z,12.18
2022-09-16T21:39:54.955Z,12.19
2022-09-16T21:42:42.500Z,12.15
2022-09-16T21:45:29.895Z,12.07
2022-09-16T21:48:19.578Z,12.11
2022-09-16T21:51:10.525Z,12.07
2022-09-16T21:53:58.012Z,11.99
2022-09-16T21:56:45.585Z,12.03
2022-09-16T21:59:32.850Z,11.93
2022-09-16T22:02:20.306Z,11.93
2022-09-16T22:05:07.733Z,11.94
2022-09-16T22:07:54.984Z,11.92
2022-09-16T22:10:42.554Z,11.91
2022-09-16T22:13:31.290Z,11.86
2022-09-16T22:16:28.287Z,11.88
2022-09-16T22:19:17.754Z,11.84
2022-09-16T22:22:05.128Z,11.86
2022-09-16T22:24:52.476Z,11.83
2022-09-16T22:27:39.773Z,11.83
2022-09-16T22:30:27.043Z,11.79
2022-09-16T22:33:14.508Z,11.88
2022-09-16T22:36:07.046Z,11.85
2022-09-16T22:39:00.906Z,11.80
2022-09-16T22:41:48.204Z,11.87
2022-09-16T22:44:35.561Z,11.82
2022-09-16T22:47:22.947Z,11.75
2022-09-16T22:50:10.638Z,11.83
2022-09-16T22:52:58.237Z,11.83
2022-09-16T22:55:45.641Z,11.81
2022-09-16T22:58:33.577Z,11.79
2022-09-16T23:01:24.226Z,11.85
2022-09-16T23:04:11.823Z,11.82
2022-09-16T23:06:59.902Z,11.86
2022-09-16T23:09:47.545Z,11.72
2022-09-16T23:12:35.774Z,11.91
2022-09-16T23:15:23.145Z,11.92
2022-09-16T23:18:10.621Z,11.98
2022-09-16T23:21:02.702Z,12.03
2022-09-16T23:23:52.765Z,12.04
2022-09-16T23:26:40.519Z,12.08
2022-09-16T23:29:27.980Z,12.11
2022-09-16T23:32:15.614Z,12.12
2022-09-16T23:35:03.594Z,12.13
2022-09-16T23:37:51.299Z,12.12
2022-09-16T23:40:39.230Z,12.10
2022-09-16T23:43:27.114Z,12.11
2022-09-16T23:46:16.631Z,12.11
2022-09-16T23:49:04.081Z,12.07
2022-09-16T23:51:51.492Z,12.10
2022-09-16T23:54:39.070Z,12.14
2022-09-16T23:57:26.895Z,12.12
